Time;durP1;ratioP1;P1;durP2;ratioP2;P2;SDS_P1;SDS_P2;PMS_P1;PMS_P2;Temp;Humidity;BMP_temperature;BMP_pressure;BME280_temperature;BME280_humidity;BME280_pressure;Samples;Min_cycle;Max_cycle;Signal;HPM_P1;HPM_P2
2023/08/01 00:02:19;;;;;;;1.50;1.10;;;17.30;99.90;;;;;;5022725;28;20239;-78
2023/08/01 00:04:44;;;;;;;1.10;0.80;;;17.20;99.90;;;;;;5020227;28;20252;-78
2023/08/01 00:07:10;;;;;;;1.23;0.70;;;17.20;99.90;;;;;;5021316;28;20200;-78
2023/08/01 00:09:35;;;;;;;1.67;0.80;;;17.30;99.90;;;;;;5022726;28;20211;-79
2023/08/01 00:12:01;;;;;;;2.83;0.70;;;17.30;99.90;;;;;;5022855;28;20232;-78
2023/08/01 00:14:26;;;;;;;0.83;0.50;;;17.20;99.90;;;;;;5019054;28;20255;-79
2023/08/01 00:16:52;;;;;;;1.73;0.40;;;17.30;99.90;;;;;;5017099;28;20588;-78
2023/08/01 00:19:18;;;;;;;1.03;0.40;;;17.30;99.90;;;;;;5017951;28;20177;-79
2023/08/01 00:21:44;;;;;;;1.63;0.57;;;17.30;99.90;;;;;;5020048;28;20219;-79
2023/08/01 00:24:09;;;;;;;1.17;0.50;;;17.20;99.90;;;;;;5019632;28;20249;-78
2023/08/01 00:26:35;;;;;;;1.23;0.60;;;17.20;99.90;;;;;;5019950;28;20220;-79
2023/08/01 00:29:01;;;;;;;0.67;0.60;;;17.20;99.90;;;;;;5019807;28;20672;-78
2023/08/01 00:31:26;;;;;;;1.13;0.70;;;17.20;99.90;;;;;;5020007;28;20193;-79
2023/08/01 00:33:52;;;;;;;1.67;0.70;;;17.20;99.90;;;;;;5021024;28;20649;-79
2023/08/01 00:36:17;;;;;;;0.90;0.70;;;17.20;99.90;;;;;;5021478;28;20192;-79
2023/08/01 00:38:43;;;;;;;0.80;0.70;;;17.20;99.90;;;;;;5021351;28;20177;-79
2023/08/01 00:41:09;;;;;;;1.57;0.70;;;17.20;99.90;;;;;;5021324;28;20201;-79
2023/08/01 00:43:35;;;;;;;1.60;0.90;;;17.10;99.90;;;;;;5017363;28;20188;-78
2023/08/01 00:46:04;;;;;;;2.50;0.70;;;17.20;99.90;;;;;;5018750;28;20260;-78
2023/08/01 00:48:30;;;;;;;4.20;0.70;;;17.20;99.90;;;;;;5019367;28;20173;-79
2023/08/01 00:51:00;;;;;;;1.07;0.60;;;17.20;99.90;;;;;;5018442;28;20700;-79
2023/08/01 00:53:25;;;;;;;0.70;0.60;;;17.10;99.90;;;;;;5018748;28;20242;-79
2023/08/01 00:55:54;;;;;;;0.73;0.50;;;17.10;99.90;;;;;;5018809;28;20636;-78
2023/08/01 00:58:20;;;;;;;0.80;0.40;;;17.10;99.90;;;;;;5019225;28;20173;-79
2023/08/01 01:00:46;;;;;;;1.50;0.63;;;17.10;99.90;;;;;;5018327;28;20200;-79
2023/08/01 01:03:13;;;;;;;2.53;0.67;;;17.10;99.90;;;;;;5018906;28;20636;-79
2023/08/01 01:05:52;;;;;;;1.57;1.00;;;17.10;99.90;;;;;;5018211;28;20207;-79
2023/08/01 01:08:18;;;;;;;1.33;0.80;;;17.10;99.90;;;;;;5016102;28;20173;-79
2023/08/01 01:10:43;;;;;;;1.43;0.80;;;17.00;99.90;;;;;;5013645;28;20281;-78
2023/08/01 01:13:09;;;;;;;1.67;1.07;;;17.00;99.90;;;;;;5000942;28;20182;-78
2023/08/01 01:15:34;;;;;;;2.10;0.90;;;17.00;99.90;;;;;;5016008;28;20177;-78
2023/08/01 01:18:00;;;;;;;2.60;1.00;;;17.00;99.90;;;;;;5007424;28;20213;-79
2023/08/01 01:20:25;;;;;;;2.77;1.00;;;17.00;99.90;;;;;;5011593;28;20200;-78
2023/08/01 01:22:55;;;;;;;1.70;1.20;;;17.00;99.90;;;;;;5013557;28;20170;-78
2023/08/01 01:25:22;;;;;;;2.43;1.47;;;17.00;99.90;;;;;;5014352;28;20414;-79
2023/08/01 01:27:51;;;;;;;1.47;0.90;;;17.00;99.90;;;;;;5017822;28;20548;-79
2023/08/01 01:30:17;;;;;;;2.50;1.33;;;17.10;99.90;;;;;;5017044;28;20217;-78
2023/08/01 01:32:43;;;;;;;2.43;1.00;;;17.00;99.90;;;;;;5002592;28;20197;-79
2023/08/01 01:35:10;;;;;;;2.67;1.20;;;17.00;99.90;;;;;;5017965;28;20200;-78
2023/08/01 01:37:35;;;;;;;1.60;1.10;;;17.00;99.90;;;;;;5019681;28;20188;-78
2023/08/01 01:40:01;;;;;;;6.00;1.27;;;17.00;99.90;;;;;;5020581;28;20533;-79
2023/08/01 01:42:26;;;;;;;4.40;1.97;;;17.00;99.90;;;;;;5021860;28;20638;-79
2023/08/01 01:44:52;;;;;;;4.33;3.07;;;17.00;99.90;;;;;;5019403;28;20180;-78
2023/08/01 01:47:18;;;;;;;4.90;3.03;;;17.00;99.90;;;;;;5018125;28;20304;-79
2023/08/01 01:49:43;;;;;;;5.63;2.80;;;17.00;99.90;;;;;;5019832;28;20556;-78
2023/08/01 01:52:09;;;;;;;3.20;2.70;;;17.00;99.90;;;;;;5001715;28;20205;-78
2023/08/01 01:54:34;;;;;;;4.23;2.53;;;17.00;99.90;;;;;;5002368;28;20561;-78
2023/08/01 01:57:00;;;;;;;3.40;2.30;;;17.00;99.90;;;;;;5009177;28;20216;-78
2023/08/01 01:59:25;;;;;;;2.80;2.37;;;17.00;99.90;;;;;;5021675;28;20173;-78
2023/08/01 02:01:51;;;;;;;4.03;2.50;;;17.10;99.90;;;;;;5016699;28;20604;-78
2023/08/01 02:04:18;;;;;;;5.03;2.60;;;16.90;99.90;;;;;;5001460;28;20668;-79
2023/08/01 02:06:43;;;;;;;4.13;2.13;;;16.70;99.90;;;;;;5021813;28;20591;-78
2023/08/01 02:09:09;;;;;;;3.37;2.40;;;16.50;99.90;;;;;;5019209;28;20260;-79
2023/08/01 02:11:34;;;;;;;5.30;3.50;;;16.30;99.90;;;;;;5020188;28;20196;-78
2023/08/01 02:14:01;;;;;;;5.40;3.80;;;16.30;99.90;;;;;;5020562;28;20252;-78
2023/08/01 02:16:27;;;;;;;10.47;4.50;;;16.20;99.90;;;;;;5016979;28;20201;-79
2023/08/01 02:18:52;;;;;;;10.10;5.20;;;16.20;99.90;;;;;;5019992;28;20196;-78
2023/08/01 02:21:18;;;;;;;8.47;4.70;;;16.20;99.90;;;;;;5006935;28;20256;-79
2023/08/01 02:23:43;;;;;;;8.97;5.00;;;16.20;99.90;;;;;;5019847;28;20698;-79
2023/08/01 02:26:09;;;;;;;8.37;5.50;;;16.20;99.90;;;;;;5003290;28;20220;-78
2023/08/01 02:28:34;;;;;;;11.47;5.83;;;16.20;99.90;;;;;;5001033;28;20170;-78
2023/08/01 02:31:00;;;;;;;9.57;5.63;;;16.20;99.90;;;;;;5013975;28;20284;-79
2023/08/01 02:33:25;;;;;;;11.83;7.07;;;16.20;99.90;;;;;;5005019;28;20898;-78
2023/08/01 02:35:51;;;;;;;17.43;8.30;;;16.20;99.90;;;;;;5019225;28;20207;-79
2023/08/01 02:38:16;;;;;;;15.73;9.27;;;16.40;99.90;;;;;;5021927;28;20245;-79
2023/08/01 02:40:42;;;;;;;14.00;8.70;;;16.20;99.90;;;;;;5022041;28;20204;-78
2023/08/01 02:43:08;;;;;;;14.87;9.83;;;16.20;99.90;;;;;;5023409;28;20177;-79
2023/08/01 02:45:33;;;;;;;13.47;8.33;;;16.20;99.90;;;;;;5022224;28;20212;-77
2023/08/01 02:47:59;;;;;;;12.60;8.47;;;16.30;99.90;;;;;;5021425;28;20189;-78
2023/08/01 02:50:24;;;;;;;13.33;7.87;;;16.20;99.90;;;;;;5018631;28;20193;-78
2023/08/01 02:52:50;;;;;;;12.67;7.13;;;16.20;99.90;;;;;;5018974;28;20165;-79
2023/08/01 02:55:15;;;;;;;11.00;6.50;;;16.30;99.90;;;;;;5001822;28;20174;-78
2023/08/01 02:57:41;;;;;;;10.47;6.53;;;16.30;99.90;;;;;;5015410;28;20581;-79
2023/08/01 03:00:11;;;;;;;7.43;5.70;;;16.30;99.90;;;;;;5000288;28;20197;-78
2023/08/01 03:02:37;;;;;;;9.30;5.73;;;16.30;99.90;;;;;;5014819;28;20258;-79
2023/08/01 03:05:04;;;;;;;6.20;5.40;;;16.30;99.90;;;;;;5002877;28;20204;-78
2023/08/01 03:07:30;;;;;;;11.57;5.77;;;16.20;99.90;;;;;;4999691;28;20206;-78
2023/08/01 03:09:55;;;;;;;9.70;7.00;;;16.30;99.90;;;;;;4999320;28;20198;-78
2023/08/01 03:12:21;;;;;;;20.10;8.07;;;16.20;99.90;;;;;;5018921;28;20235;-79
2023/08/01 03:14:47;;;;;;;14.23;8.07;;;16.20;99.90;;;;;;5014536;28;20173;-78
2023/08/01 03:17:13;;;;;;;16.20;9.47;;;16.20;99.90;;;;;;5003888;28;20227;-79
2023/08/01 03:19:39;;;;;;;16.83;9.90;;;16.20;99.90;;;;;;5000467;28;20181;-79
2023/08/01 03:22:04;;;;;;;15.17;10.00;;;16.20;99.90;;;;;;5001006;28;20208;-78
2023/08/01 03:24:30;;;;;;;14.80;9.63;;;16.20;99.90;;;;;;4998684;28;20182;-79
2023/08/01 03:26:56;;;;;;;17.27;9.90;;;16.20;99.90;;;;;;5000815;28;20204;-78
2023/08/01 03:29:21;;;;;;;15.33;9.57;;;16.20;99.90;;;;;;5000250;28;20201;-78
2023/08/01 03:31:47;;;;;;;14.20;8.70;;;16.10;99.90;;;;;;4998640;28;20201;-79
2023/08/01 03:34:12;;;;;;;12.30;9.00;;;16.10;99.90;;;;;;5013946;28;20489;-78
2023/08/01 03:36:38;;;;;;;12.97;8.90;;;16.00;99.90;;;;;;4999977;28;20196;-78
2023/08/01 03:39:04;;;;;;;11.50;7.83;;;16.00;99.90;;;;;;4997757;28;20572;-79
2023/08/01 03:41:31;;;;;;;12.70;8.40;;;16.00;99.90;;;;;;5000893;28;20677;-79
2023/08/01 03:43:56;;;;;;;11.67;8.30;;;15.90;99.90;;;;;;4999603;28;20190;-79
2023/08/01 03:46:22;;;;;;;13.80;8.40;;;15.90;99.90;;;;;;5000200;28;20338;-79
2023/08/01 03:48:47;;;;;;;14.33;8.30;;;15.80;99.90;;;;;;5001683;28;20177;-79
2023/08/01 03:51:15;;;;;;;12.13;8.10;;;15.90;99.90;;;;;;5001510;28;20198;-79
2023/08/01 03:53:41;;;;;;;16.30;8.33;;;15.90;99.90;;;;;;5002642;28;20166;-79
2023/08/01 03:56:07;;;;;;;13.30;8.80;;;15.80;99.90;;;;;;5016032;28;20622;-78
2023/08/01 03:58:33;;;;;;;13.50;8.87;;;15.80;99.90;;;;;;5001153;28;20209;-78
2023/08/01 04:00:58;;;;;;;15.00;8.87;;;15.80;99.90;;;;;;5001128;28;20201;-79
2023/08/01 04:03:24;;;;;;;18.20;9.50;;;15.80;99.90;;;;;;5001911;28;20201;-79
2023/08/01 04:05:49;;;;;;;13.10;8.67;;;15.90;99.90;;;;;;5015528;28;20271;-79
2023/08/01 04:08:15;;;;;;;10.17;8.63;;;15.80;99.90;;;;;;5000160;28;20225;-79
2023/08/01 04:10:40;;;;;;;17.40;10.07;;;15.80;99.90;;;;;;5001282;28;20245;-79
2023/08/01 04:13:06;;;;;;;20.57;10.10;;;15.80;99.90;;;;;;5001221;28;20165;-79
2023/08/01 04:15:31;;;;;;;14.60;9.40;;;15.80;99.90;;;;;;5015326;28;20177;-79
2023/08/01 04:17:57;;;;;;;23.37;10.60;;;15.80;99.90;;;;;;5000303;28;20177;-79
2023/08/01 04:20:22;;;;;;;16.03;9.50;;;15.80;99.90;;;;;;5000417;28;20197;-79
2023/08/01 04:22:48;;;;;;;17.87;10.37;;;15.80;99.90;;;;;;5001857;28;20649;-79
2023/08/01 04:25:13;;;;;;;18.87;9.67;;;15.80;99.90;;;;;;5016330;28;20708;-79
2023/08/01 04:27:39;;;;;;;15.50;10.13;;;15.80;99.90;;;;;;4999863;28;20178;-79
2023/08/01 04:30:05;;;;;;;14.00;10.70;;;15.80;99.90;;;;;;5002370;28;20188;-79
2023/08/01 04:32:31;;;;;;;22.60;10.97;;;15.80;99.90;;;;;;5002974;28;20177;-79
2023/08/01 04:34:56;;;;;;;19.50;12.63;;;15.80;99.90;;;;;;5004140;28;20547;-79
2023/08/01 04:37:23;;;;;;;19.90;12.93;;;15.80;99.90;;;;;;5002277;28;20259;-79
2023/08/01 04:39:48;;;;;;;20.53;13.60;;;15.80;99.90;;;;;;5017351;28;20178;-79
2023/08/01 04:42:14;;;;;;;21.03;14.17;;;15.70;99.90;;;;;;5017674;28;20202;-79
2023/08/01 04:44:40;;;;;;;18.57;12.30;;;15.70;99.90;;;;;;5000604;28;20232;-79
2023/08/01 04:47:05;;;;;;;19.87;12.40;;;15.80;99.90;;;;;;5001506;28;20213;-79
2023/08/01 04:49:31;;;;;;;24.03;13.53;;;15.70;99.90;;;;;;5001615;28;20170;-79
2023/08/01 04:51:56;;;;;;;18.03;14.00;;;15.70;99.90;;;;;;4999144;28;20205;-79
2023/08/01 04:54:22;;;;;;;21.63;13.77;;;15.70;99.90;;;;;;5016481;28;20280;-79
2023/08/01 04:56:47;;;;;;;18.97;14.67;;;15.70;99.90;;;;;;5001414;28;20193;-79
2023/08/01 04:59:13;;;;;;;22.50;15.03;;;15.70;99.90;;;;;;5003770;28;20278;-78
2023/08/01 05:01:39;;;;;;;23.03;15.67;;;15.70;99.90;;;;;;5014066;28;20201;-79
2023/08/01 05:04:04;;;;;;;25.43;16.77;;;15.70;99.90;;;;;;5013554;28;20182;-78
2023/08/01 05:06:30;;;;;;;24.47;17.23;;;15.60;99.90;;;;;;5002430;28;20549;-79
2023/08/01 05:08:55;;;;;;;24.33;15.93;;;15.70;99.90;;;;;;5002152;28;20211;-79
2023/08/01 05:11:21;;;;;;;25.63;17.33;;;15.70;99.90;;;;;;5003185;28;20198;-79
2023/08/01 05:13:48;;;;;;;23.53;17.07;;;15.70;99.90;;;;;;5002558;28;20181;-78
2023/08/01 05:16:13;;;;;;;22.97;16.37;;;15.70;99.90;;;;;;5017836;28;20645;-79
2023/08/01 05:18:39;;;;;;;21.80;14.90;;;15.70;99.90;;;;;;5002980;28;20236;-79
2023/08/01 05:21:04;;;;;;;19.30;14.80;;;15.70;99.90;;;;;;5001857;28;20335;-80
2023/08/01 05:23:30;;;;;;;23.73;14.60;;;15.70;99.90;;;;;;5002258;28;20316;-79
2023/08/01 05:25:56;;;;;;;26.47;15.87;;;15.70;99.90;;;;;;5017427;28;20231;-79
2023/08/01 05:28:21;;;;;;;24.70;15.83;;;15.70;99.90;;;;;;5002441;28;20693;-79
2023/08/01 05:30:47;;;;;;;23.17;15.20;;;15.70;99.90;;;;;;5000656;28;20208;-78
2023/08/01 05:33:12;;;;;;;25.30;15.67;;;15.70;99.90;;;;;;5003013;28;20169;-79
2023/08/01 05:35:38;;;;;;;24.10;14.83;;;15.70;99.90;;;;;;5002777;28;20256;-78
2023/08/01 05:38:03;;;;;;;24.80;16.50;;;15.80;99.90;;;;;;5003344;28;20231;-78
2023/08/01 05:40:29;;;;;;;22.07;15.50;;;15.80;99.90;;;;;;5017835;28;20205;-79
2023/08/01 05:42:55;;;;;;;22.63;16.00;;;15.80;99.90;;;;;;5003247;28;20501;-78
2023/08/01 05:45:20;;;;;;;22.27;16.40;;;15.80;99.90;;;;;;5003118;28;20189;-79
2023/08/01 05:47:46;;;;;;;25.43;16.10;;;15.80;99.90;;;;;;5003446;28;20177;-79
2023/08/01 05:50:12;;;;;;;20.30;14.60;;;15.80;99.90;;;;;;5001559;28;20212;-80
2023/08/01 05:52:37;;;;;;;20.07;14.27;;;15.80;99.90;;;;;;5017397;28;20190;-79
2023/08/01 05:55:03;;;;;;;23.27;14.90;;;15.80;99.90;;;;;;5017282;28;20185;-79
2023/08/01 05:57:30;;;;;;;23.53;14.27;;;15.90;99.90;;;;;;5002700;28;20192;-79
2023/08/01 05:59:55;;;;;;;22.60;14.90;;;15.90;99.90;;;;;;5002606;28;20319;-79
2023/08/01 06:02:21;;;;;;;22.27;14.33;;;15.90;99.90;;;;;;5002152;28;20219;-79
2023/08/01 06:04:46;;;;;;;19.27;14.57;;;16.00;99.90;;;;;;5001803;28;20210;-80
2023/08/01 06:07:12;;;;;;;28.30;15.13;;;16.00;99.90;;;;;;5001312;28;20193;-79
2023/08/01 06:09:37;;;;;;;17.53;12.83;;;16.00;99.90;;;;;;5001554;28;20224;-79
2023/08/01 06:12:03;;;;;;;17.77;13.03;;;16.00;99.90;;;;;;5000807;28;20725;-79
2023/08/01 06:14:29;;;;;;;17.27;12.37;;;16.00;99.90;;;;;;5001307;28;20189;-79
2023/08/01 06:16:54;;;;;;;17.83;12.60;;;16.10;99.90;;;;;;5005003;28;20189;-79
2023/08/01 06:19:20;;;;;;;20.60;12.80;;;16.10;99.90;;;;;;5016362;28;20165;-79
2023/08/01 06:21:51;;;;;;;17.73;12.23;;;16.10;99.90;;;;;;5018914;28;20205;-78
2023/08/01 06:24:17;;;;;;;21.73;11.33;;;16.10;99.90;;;;;;5014542;28;20587;-80
2023/08/01 06:26:43;;;;;;;23.37;11.13;;;16.10;99.90;;;;;;5017151;28;20209;-78
2023/08/01 06:29:08;;;;;;;16.80;10.73;;;16.10;99.90;;;;;;5017131;28;20177;-79
2023/08/01 06:31:34;;;;;;;17.53;11.20;;;16.10;99.90;;;;;;5013540;28;20193;-78
2023/08/01 06:33:59;;;;;;;16.07;10.67;;;16.20;99.90;;;;;;5001131;28;20197;-79
2023/08/01 06:36:25;;;;;;;20.83;11.23;;;16.20;99.90;;;;;;5001021;28;20621;-79
2023/08/01 06:38:51;;;;;;;17.50;10.07;;;16.20;99.90;;;;;;5000578;28;20236;-79
2023/08/01 06:41:16;;;;;;;16.97;9.70;;;16.10;99.90;;;;;;4998933;28;20271;-79
2023/08/01 06:43:42;;;;;;;17.50;9.63;;;16.10;99.90;;;;;;5013709;28;20181;-79
2023/08/01 06:46:07;;;;;;;14.27;9.53;;;16.10;99.90;;;;;;5016688;28;20205;-79
2023/08/01 06:48:36;;;;;;;21.50;10.60;;;16.20;99.90;;;;;;5018341;28;20173;-78
2023/08/01 06:51:04;;;;;;;12.33;8.87;;;16.20;99.90;;;;;;5017736;28;20329;-79
2023/08/01 06:53:30;;;;;;;15.07;8.80;;;16.20;99.90;;;;;;5000480;28;20185;-79
2023/08/01 06:55:55;;;;;;;13.63;9.27;;;16.20;99.90;;;;;;4998356;28;20182;-79
2023/08/01 06:58:21;;;;;;;16.77;9.70;;;16.20;99.90;;;;;;5000139;28;20204;-79
2023/08/01 07:00:46;;;;;;;20.80;8.83;;;16.30;99.90;;;;;;5015571;28;20511;-79
2023/08/01 07:03:12;;;;;;;18.57;9.50;;;16.20;99.90;;;;;;4999816;28;20185;-80
2023/08/01 07:05:38;;;;;;;19.73;8.87;;;16.20;99.90;;;;;;5001101;28;20197;-79
2023/08/01 07:08:03;;;;;;;19.07;8.97;;;16.20;99.90;;;;;;5002827;28;20178;-79
2023/08/01 07:10:30;;;;;;;16.17;9.07;;;16.20;99.90;;;;;;5000003;28;20252;-79
2023/08/01 07:12:55;;;;;;;21.00;9.23;;;16.30;99.90;;;;;;5003329;28;20173;-79
2023/08/01 07:15:21;;;;;;;18.90;8.90;;;16.30;99.90;;;;;;5003980;28;20184;-80
2023/08/01 07:17:46;;;;;;;16.40;8.67;;;16.40;99.90;;;;;;5004711;28;20193;-79
2023/08/01 07:20:12;;;;;;;14.97;8.20;;;16.40;99.90;;;;;;5008545;28;20186;-80
2023/08/01 07:22:37;;;;;;;19.53;8.60;;;16.50;99.90;;;;;;5011897;28;20521;-79
2023/08/01 07:25:03;;;;;;;16.03;8.90;;;16.60;99.90;;;;;;4995750;28;20646;-79
2023/08/01 07:27:29;;;;;;;14.43;9.23;;;16.50;99.90;;;;;;4997525;28;20608;-78
2023/08/01 07:29:54;;;;;;;11.30;7.83;;;16.50;99.90;;;;;;4997106;28;20252;-79
2023/08/01 07:32:20;;;;;;;15.33;8.43;;;16.50;99.90;;;;;;4997351;28;20257;-79
2023/08/01 07:34:45;;;;;;;15.80;8.50;;;16.50;99.90;;;;;;4996035;28;20185;-79
2023/08/01 07:37:11;;;;;;;14.50;8.77;;;16.60;99.90;;;;;;4997260;28;20165;-79
2023/08/01 07:39:36;;;;;;;16.10;7.77;;;16.60;99.90;;;;;;4997338;28;20177;-80
2023/08/01 07:42:03;;;;;;;15.60;8.43;;;16.60;99.90;;;;;;4997219;28;20182;-78
2023/08/01 07:44:29;;;;;;;12.97;7.60;;;16.60;99.90;;;;;;4996371;28;20634;-79
2023/08/01 07:46:54;;;;;;;14.07;7.63;;;16.60;99.90;;;;;;4997079;28;20264;-79
2023/08/01 07:49:20;;;;;;;17.10;8.47;;;16.60;99.90;;;;;;4997851;28;20181;-79
2023/08/01 07:51:45;;;;;;;13.10;8.40;;;16.60;99.90;;;;;;4995790;28;20197;-79
2023/08/01 07:54:11;;;;;;;17.53;8.03;;;16.50;99.90;;;;;;4997455;28;20174;-79
2023/08/01 07:56:36;;;;;;;12.57;7.83;;;16.60;99.90;;;;;;4995227;28;20260;-80
2023/08/01 07:59:02;;;;;;;13.90;8.83;;;16.70;99.90;;;;;;4995887;28;20174;-79
2023/08/01 08:01:27;;;;;;;16.77;8.80;;;16.90;99.90;;;;;;4997425;28;20194;-79
2023/08/01 08:03:53;;;;;;;13.63;8.47;;;16.80;99.90;;;;;;4996057;28;20192;-78
2023/08/01 08:06:21;;;;;;;11.33;7.67;;;16.90;99.90;;;;;;4996973;28;20198;-79
2023/08/01 08:08:46;;;;;;;19.47;8.47;;;17.10;99.90;;;;;;4995636;28;20661;-79
2023/08/01 08:11:12;;;;;;;11.53;7.60;;;17.10;99.90;;;;;;4996843;28;20197;-80
2023/08/01 08:13:37;;;;;;;11.97;6.83;;;17.20;99.90;;;;;;4997716;28;20268;-79
2023/08/01 08:16:04;;;;;;;12.30;6.77;;;17.40;99.90;;;;;;4996081;28;20222;-80
2023/08/01 08:18:30;;;;;;;11.93;7.03;;;17.30;99.90;;;;;;4997329;28;20177;-79
2023/08/01 08:20:55;;;;;;;13.57;6.87;;;17.30;99.90;;;;;;4997715;28;20685;-79
2023/08/01 08:23:21;;;;;;;10.80;6.47;;;17.30;99.90;;;;;;4997018;28;20173;-79
2023/08/01 08:25:47;;;;;;;12.30;6.33;;;17.30;99.90;;;;;;4995849;28;20201;-79
2023/08/01 08:28:13;;;;;;;12.70;6.40;;;17.30;99.90;;;;;;4995869;28;20177;-78
2023/08/01 08:30:39;;;;;;;10.30;6.17;;;17.20;99.90;;;;;;4995876;28;20198;-79
2023/08/01 08:33:06;;;;;;;7.07;5.77;;;17.20;99.90;;;;;;4995691;28;20181;-79
2023/08/01 08:35:35;;;;;;;15.03;6.13;;;17.40;99.90;;;;;;4995615;28;20540;-79
2023/08/01 08:38:03;;;;;;;9.67;5.77;;;17.30;99.90;;;;;;5000263;28;20566;-78
2023/08/01 08:40:31;;;;;;;11.30;6.03;;;17.40;99.90;;;;;;5001592;28;20190;-80
2023/08/01 08:43:00;;;;;;;12.07;5.53;;;17.40;99.90;;;;;;5000385;28;20181;-79
2023/08/01 08:45:26;;;;;;;8.60;5.10;;;17.50;99.90;;;;;;5000296;28;20550;-79
2023/08/01 08:47:55;;;;;;;19.03;5.50;;;17.50;99.90;;;;;;4999985;28;20173;-79
2023/08/01 08:50:22;;;;;;;7.47;4.77;;;17.50;99.90;;;;;;5002144;28;20196;-79
2023/08/01 08:52:48;;;;;;;7.50;4.97;;;17.60;99.90;;;;;;5000320;28;20649;-80
2023/08/01 08:55:14;;;;;;;9.90;5.33;;;17.80;99.90;;;;;;5001736;28;20177;-79
2023/08/01 08:57:39;;;;;;;8.57;5.00;;;17.80;99.90;;;;;;5002612;28;20185;-79
2023/08/01 09:00:06;;;;;;;10.20;5.10;;;17.80;99.90;;;;;;5001216;28;20201;-79
2023/08/01 09:02:33;;;;;;;8.90;5.03;;;17.90;99.90;;;;;;5001848;28;20530;-80
2023/08/01 09:04:59;;;;;;;10.93;5.33;;;18.00;99.90;;;;;;5002994;28;20182;-79
2023/08/01 09:07:29;;;;;;;10.17;5.33;;;18.10;99.90;;;;;;5003144;28;20208;-80
2023/08/01 09:09:55;;;;;;;8.03;5.10;;;18.10;99.90;;;;;;5003372;28;20205;-80
2023/08/01 09:12:21;;;;;;;9.60;5.47;;;18.10;99.90;;;;;;5001937;28;20188;-80
2023/08/01 09:14:50;;;;;;;10.37;4.73;;;18.20;99.90;;;;;;5003982;28;20181;-80
2023/08/01 09:17:18;;;;;;;8.27;4.50;;;18.20;99.90;;;;;;5004483;28;20177;-81
2023/08/01 09:19:44;;;;;;;8.50;4.63;;;18.20;99.90;;;;;;5004427;28;20177;-81
2023/08/01 09:22:13;;;;;;;7.00;3.83;;;18.30;99.90;;;;;;5004843;28;20731;-80
2023/08/01 09:24:39;;;;;;;8.13;4.00;;;18.20;99.90;;;;;;5004139;28;20185;-80
2023/08/01 09:27:05;;;;;;;9.93;3.93;;;18.20;99.90;;;;;;5006947;28;20589;-80
2023/08/01 09:29:32;;;;;;;5.67;3.73;;;18.40;99.90;;;;;;5019988;28;20217;-80
2023/08/01 09:31:58;;;;;;;6.53;3.50;;;18.50;99.90;;;;;;5004796;28;20735;-80
2023/08/01 09:34:25;;;;;;;5.83;3.13;;;18.60;99.90;;;;;;5007782;28;20181;-80
2023/08/01 09:36:56;;;;;;;6.40;3.33;;;18.60;99.90;;;;;;5014978;28;20165;-80
2023/08/01 09:39:22;;;;;;;8.13;3.67;;;18.70;99.90;;;;;;5012926;28;20181;-78
2023/08/01 09:41:58;;;;;;;8.83;4.07;;;18.40;99.90;;;;;;4999148;28;20228;-78
2023/08/01 09:44:29;;;;;;;9.67;4.03;;;18.20;99.90;;;;;;4996985;28;20192;-79
2023/08/01 09:46:58;;;;;;;8.03;4.00;;;18.20;99.90;;;;;;4998135;28;20281;-79
2023/08/01 09:49:23;;;;;;;8.00;4.23;;;18.20;99.90;;;;;;5012615;28;20272;-79
2023/08/01 09:51:50;;;;;;;11.37;5.03;;;18.10;99.90;;;;;;4997329;28;20225;-78
2023/08/01 09:54:17;;;;;;;10.83;4.97;;;18.30;99.90;;;;;;4998342;28;20185;-79
2023/08/01 09:56:50;;;;;;;8.43;4.70;;;18.50;99.90;;;;;;4996901;28;20182;-76
2023/08/01 09:59:24;;;;;;;7.20;4.77;;;18.50;99.90;;;;;;4997796;28;20170;-78
2023/08/01 10:01:51;;;;;;;10.50;5.37;;;18.60;99.90;;;;;;4997156;28;20208;-79
2023/08/01 10:04:20;;;;;;;9.30;4.90;;;18.50;99.90;;;;;;4998048;28;20189;-79
2023/08/01 10:06:50;;;;;;;6.37;4.13;;;18.40;99.90;;;;;;4998954;28;20209;-79
2023/08/01 10:09:16;;;;;;;11.10;4.13;;;18.50;99.90;;;;;;4998367;28;20208;-78
2023/08/01 10:11:42;;;;;;;9.00;5.00;;;18.40;99.90;;;;;;4998746;28;20197;-79
2023/08/01 10:14:08;;;;;;;6.87;4.20;;;18.50;99.90;;;;;;4998330;28;20241;-79
2023/08/01 10:16:36;;;;;;;8.13;4.07;;;18.40;99.90;;;;;;4998119;28;20177;-78
2023/08/01 10:19:02;;;;;;;8.40;4.30;;;18.60;99.90;;;;;;4996239;28;20178;-78
2023/08/01 10:21:29;;;;;;;7.43;3.97;;;18.70;99.90;;;;;;4997823;28;20281;-79
2023/08/01 10:23:57;;;;;;;7.63;4.27;;;18.80;99.90;;;;;;4997652;28;20614;-79
2023/08/01 10:26:23;;;;;;;9.23;4.07;;;19.00;99.90;;;;;;4999649;28;20693;-79
2023/08/01 10:28:52;;;;;;;8.30;4.00;;;19.10;99.90;;;;;;4997650;28;20181;-78
2023/08/01 10:31:19;;;;;;;7.57;4.10;;;19.10;99.90;;;;;;4996754;28;20198;-79
2023/08/01 10:33:47;;;;;;;9.57;3.80;;;19.00;99.90;;;;;;4997819;28;20212;-78
2023/08/01 10:36:18;;;;;;;7.13;4.00;;;18.80;99.90;;;;;;4996967;28;20199;-79
2023/08/01 10:38:52;;;;;;;7.87;4.33;;;18.60;99.90;;;;;;4995652;28;20635;-77
2023/08/01 10:41:34;;;;;;;10.87;4.73;;;18.50;99.90;;;;;;4997302;28;20198;-78
2023/08/01 10:44:13;;;;;;;9.67;4.90;;;18.20;99.90;;;;;;4998796;28;20580;-78
2023/08/01 10:46:56;;;;;;;11.63;5.57;;;18.20;99.90;;;;;;5000770;28;20197;-79
2023/08/01 10:49:34;;;;;;;11.57;5.67;;;18.00;99.90;;;;;;5001436;28;20177;-79
2023/08/01 10:52:00;;;;;;;9.33;5.03;;;17.90;99.90;;;;;;5001140;28;20177;-79
2023/08/01 10:54:26;;;;;;;7.43;4.90;;;17.70;99.90;;;;;;4998344;28;20177;-79
2023/08/01 10:56:58;;;;;;;7.43;4.60;;;17.70;99.90;;;;;;4998988;28;20189;-78
2023/08/01 10:59:24;;;;;;;6.77;4.87;;;17.70;99.90;;;;;;5000027;28;20216;-78
2023/08/01 11:01:52;;;;;;;8.73;5.00;;;17.70;99.90;;;;;;5002531;28;20206;-79
2023/08/01 11:04:19;;;;;;;8.33;5.37;;;17.60;99.90;;;;;;5002753;28;20185;-79
2023/08/01 11:06:50;;;;;;;8.07;5.13;;;17.70;99.90;;;;;;5001530;28;20261;-79
2023/08/01 11:09:27;;;;;;;9.33;5.73;;;17.80;99.90;;;;;;5017729;28;20229;-80
2023/08/01 11:11:58;;;;;;;11.17;5.97;;;18.00;99.90;;;;;;5000572;28;20202;-80
2023/08/01 11:14:26;;;;;;;6.73;4.23;;;18.00;99.90;;;;;;5002004;28;20240;-79
2023/08/01 11:16:54;;;;;;;5.80;4.10;;;18.30;99.90;;;;;;5002349;28;20289;-80
2023/08/01 11:19:23;;;;;;;4.17;3.70;;;18.20;99.90;;;;;;5001021;28;20244;-79
2023/08/01 11:21:51;;;;;;;4.07;2.60;;;18.20;99.90;;;;;;5002014;28;20208;-80
2023/08/01 11:24:17;;;;;;;6.43;2.73;;;18.00;99.90;;;;;;5001282;28;20184;-79
2023/08/01 11:26:44;;;;;;;6.87;3.30;;;17.90;99.90;;;;;;5001666;28;20225;-80
2023/08/01 11:29:11;;;;;;;5.30;3.17;;;17.80;99.90;;;;;;5003217;28;20196;-79
2023/08/01 11:31:37;;;;;;;8.50;3.97;;;17.80;99.90;;;;;;5002523;28;20634;-79
2023/08/01 11:34:02;;;;;;;9.57;4.70;;;17.70;99.90;;;;;;5003223;28;20217;-79
2023/08/01 11:36:29;;;;;;;9.13;4.40;;;17.70;99.90;;;;;;5004541;28;20216;-79
2023/08/01 11:39:00;;;;;;;11.43;4.73;;;17.70;99.90;;;;;;5005475;28;20198;-79
2023/08/01 11:41:29;;;;;;;7.53;3.57;;;17.70;99.90;;;;;;5006939;28;20209;-79
2023/08/01 11:43:55;;;;;;;6.67;3.90;;;17.60;99.90;;;;;;5021284;28;20197;-79
2023/08/01 11:46:22;;;;;;;8.83;4.63;;;17.60;99.90;;;;;;5008216;28;20193;-80
2023/08/01 11:48:50;;;;;;;8.17;4.10;;;17.70;99.90;;;;;;5007905;28;20178;-80
2023/08/01 11:51:16;;;;;;;7.27;3.87;;;17.50;99.90;;;;;;5012429;28;20196;-80
2023/08/01 11:53:41;;;;;;;8.13;4.07;;;17.50;99.90;;;;;;5011635;28;20241;-80
2023/08/01 11:56:07;;;;;;;7.47;3.87;;;17.40;99.90;;;;;;5003844;28;20185;-80
2023/08/01 11:58:35;;;;;;;8.20;4.87;;;17.40;99.90;;;;;;5002139;28;20176;-80
2023/08/01 12:01:11;;;;;;;10.20;4.33;;;17.40;99.90;;;;;;5002886;28;20201;-79
2023/08/01 12:03:48;;;;;;;9.33;4.67;;;17.50;99.90;;;;;;5002646;28;20223;-80
2023/08/01 12:06:15;;;;;;;10.30;4.80;;;17.50;99.90;;;;;;5002464;28;20193;-80
2023/08/01 12:08:44;;;;;;;9.07;5.00;;;17.60;99.90;;;;;;5000486;28;20185;-79
2023/08/01 12:11:25;;;;;;;11.17;5.47;;;17.60;99.90;;;;;;5000657;28;20193;-80
2023/08/01 12:14:03;;;;;;;7.10;3.40;;;17.60;99.90;;;;;;5000635;28;20267;-81
2023/08/01 12:16:29;;;;;;;6.90;3.10;;;17.70;99.90;;;;;;5000033;28;20181;-79
2023/08/01 12:18:56;;;;;;;5.80;2.70;;;17.70;99.90;;;;;;5000189;28;20177;-80
2023/08/01 12:21:21;;;;;;;7.87;2.40;;;17.80;99.90;;;;;;5001424;28;20197;-80
2023/08/01 12:23:47;;;;;;;5.93;2.30;;;17.80;99.90;;;;;;4998983;28;20280;-80
2023/08/01 12:26:12;;;;;;;3.73;2.20;;;17.80;99.90;;;;;;5001722;28;20289;-80
2023/08/01 12:28:38;;;;;;;6.40;2.30;;;17.80;99.90;;;;;;5000620;28;20264;-80
2023/08/01 12:31:04;;;;;;;9.03;1.90;;;17.80;99.90;;;;;;4999853;28;20273;-79
2023/08/01 12:33:30;;;;;;;4.57;1.83;;;17.80;99.90;;;;;;5000930;28;20193;-80
2023/08/01 12:35:55;;;;;;;9.80;2.13;;;17.90;99.90;;;;;;5001505;28;20209;-80
2023/08/01 12:38:21;;;;;;;2.20;1.70;;;17.80;99.90;;;;;;4999147;28;20204;-79